FQMA/MPM METAR and TAF weather

Enter ICAO airport designator
Station Type Date Time Source
FQMA METAR 2022/12/04 13:00 UTC NOAA

FQMA 041300Z 10010G25KT 050V130 9999 SCT020 28/21 Q1009 NOSIG


Station Type Date Time Source
FQMA Decoded METAR 2022/12/04 13:00 UTC NOAA

Maputo / Mavalane, Mozambique (FQMA) 25-55S 032-34E 44M
Dec 04, 2022 - 08:00 AM EST / 2022.12.04 1300 UTC
Wind: from the E (100 degrees) at 12 MPH (10 KT) gusting to 29 MPH (25 KT) (direction variable):0
Visibility: greater than 7 mile(s):0
Sky conditions: partly cloudy
Temperature: 82 F (28 C)
Dew Point: 69 F (21 C)
Relative Humidity: 65%
Pressure (altimeter): 29.80 in. Hg (1009 hPa)
ob: FQMA 041300Z 10010G25KT 050V130 9999 SCT020 28/21 Q1009 NOSIG
cycle: 13

Station Type Date Time Source
FQMA TAF 2022/12/04 12:29 UTC NOAA

TAF FQMA 041000Z 0412/0518 12010KT 9999 BKN020 TX30/0413Z TN21/0503Z
BECMG 0418/0420 06010KT
BECMG 0500/0502 36006KT
BECMG 0512/0514 36012G24KT

Example: see airport list